Météo Nord-Pas-de-Calais   La météo au plus près de chez vous

Station météorologique

Observations météo à St Rambert Cg01 (01384)

01384003 296 m Dernier relevé à 14:42
28.9°C
Vent 5.8 km/h

Journée consultée

Jeudi 3 Septembre 2026

Synthèse de la journée

Périodes de référence en UTC

Température maximale

28.9°C

à 14:42

06h 06h

Température minimale

11.8°C

à 07:00

18h 18h

Rafale maximale

24 km/h

à 12:00

00h 00h

Précipitations

0 mm

Cumul quotidien

06h 06h

Graphiques de la journée

Heure locale Réduire

Données détaillées

Relevés météo

Pas de 6 minutes Afficher les relevés infra-horaires
Relevés météo détaillés à St Rambert Cg01 pour le Jeudi 3 Septembre 2026
Heure Température °C Vent moyen (raf.), km/h Précipitations mm
14:42 28.9 °C 5 km/h (10 km/h) 0 mm0 mm
14:36 28.6 °C 5 km/h (11 km/h) 0 mm0 mm
14:30 28.7 °C 5 km/h (13 km/h) 0 mm0 mm
14:24 28.6 °C 6 km/h (15 km/h) 0 mm0 mm
14:18 28.4 °C 5 km/h (15 km/h) 0 mm0 mm
14:12 28.2 °C 5 km/h (10 km/h) 0 mm0 mm
14:06 28.1 °C 5 km/h (10 km/h) 0 mm0 mm
14:00 28.1 °C 5 km/h (11 km/h) 0 mm0 mm
13:54 27.8 °C 6 km/h (12 km/h) 0 mm0 mm
13:48 27.3 °C 5 km/h (12 km/h) 0 mm0 mm
13:42 27.6 °C 6 km/h (12 km/h) 0 mm0 mm
13:36 27.4 °C 6 km/h (13 km/h) 0 mm0 mm
13:30 27.5 °C 5 km/h (15 km/h) 0 mm0 mm
13:24 27.6 °C 6 km/h (15 km/h) 0 mm0 mm
13:18 27.4 °C 6 km/h (14 km/h) 0 mm0 mm
13:12 27.1 °C 7 km/h (15 km/h) 0 mm0 mm
13:06 26.9 °C 6 km/h (15 km/h) 0 mm0 mm
13:00 26.7 °C 6 km/h (14 km/h) 0 mm0 mm
12:54 26.7 °C 5 km/h (12 km/h) 0 mm0 mm
12:48 26.7 °C 8 km/h (20 km/h) 0 mm0 mm
12:42 26.2 °C 10 km/h (24 km/h) 0 mm0 mm
12:36 26 °C 9 km/h (24 km/h) 0 mm0 mm
12:30 26.2 °C 9 km/h (21 km/h) 0 mm0 mm
12:24 26 °C 6 km/h (15 km/h) 0 mm0 mm
12:18 26 °C 8 km/h (20 km/h) 0 mm0 mm
12:12 25.6 °C 10 km/h (22 km/h) 0 mm0 mm
12:06 25.6 °C 9 km/h (24 km/h) 0 mm0 mm
12:00 25.7 °C 8 km/h (24 km/h) 0 mm0 mm
11:54 25.5 °C 6 km/h (17 km/h) 0 mm0 mm
11:48 25 °C 4 km/h (10 km/h) 0 mm0 mm
11:42 25 °C 3 km/h (6 km/h) 0 mm0 mm
11:36 24.5 °C 2 km/h (6 km/h) 0 mm0 mm
11:30 23.7 °C 3 km/h (6 km/h) 0 mm0 mm
11:24 23.4 °C 4 km/h (6 km/h) 0 mm0 mm
11:18 23 °C 4 km/h (7 km/h) 0 mm0 mm
11:12 22.6 °C 3 km/h (7 km/h) 0 mm0 mm
11:06 22.1 °C 3 km/h (6 km/h) 0 mm0 mm
11:00 21.8 °C 3 km/h (6 km/h) 0 mm0 mm
10:54 20.9 °C 3 km/h (6 km/h) 0 mm0 mm
10:48 21.1 °C 3 km/h (6 km/h) 0 mm0 mm
10:42 20.4 °C 3 km/h (5 km/h) 0 mm0 mm
10:36 20.1 °C 2 km/h (5 km/h) 0 mm0 mm
10:30 19.6 °C 3 km/h (5 km/h) 0 mm0 mm
10:24 19.4 °C 3 km/h (5 km/h) 0 mm0 mm
10:18 19 °C 3 km/h (5 km/h) 0 mm0 mm
10:12 18.5 °C 3 km/h (5 km/h) 0 mm0 mm
10:06 18.2 °C 2 km/h (4 km/h) 0 mm0 mm
10:00 17.7 °C 2 km/h (5 km/h) 0 mm0 mm
09:54 17.3 °C 3 km/h (5 km/h) 0 mm0 mm
09:48 17.2 °C 2 km/h (4 km/h) 0 mm0 mm
09:42 16.8 °C 2 km/h (4 km/h) 0 mm0 mm
09:36 16.4 °C 2 km/h (5 km/h) 0 mm0 mm
09:30 15.9 °C 2 km/h (5 km/h) 0 mm0 mm
09:24 15.8 °C 2 km/h (4 km/h) 0 mm0 mm
09:18 15.4 °C 3 km/h (5 km/h) 0 mm0 mm
09:12 15 °C 3 km/h (5 km/h) 0 mm0 mm
09:06 14.8 °C 3 km/h (8 km/h) 0 mm0 mm
09:00 14.6 °C 3 km/h (8 km/h) 0 mm0 mm
08:54 14.4 °C 2 km/h (6 km/h) 0 mm0 mm
08:48 13.9 °C 2 km/h (5 km/h) 0 mm0 mm
08:42 13.4 °C 3 km/h (7 km/h) 0 mm0 mm
08:36 12.9 °C 4 km/h (9 km/h) 0 mm0 mm
08:30 12.5 °C 3 km/h (9 km/h) 0 mm0 mm
08:24 12.2 °C 0 km/h (6 km/h) 0 mm0 mm
08:18 12 °C 0 km/h (6 km/h) 0 mm0 mm
08:12 11.9 °C 0 km/h (4 km/h) 0 mm0 mm
08:06 11.9 °C 0 km/h (6 km/h) 0 mm0 mm
08:00 11.9 °C 2 km/h (6 km/h) 0 mm0 mm
07:54 11.9 °C 0 km/h (5 km/h) 0 mm0 mm
07:48 11.8 °C 0 km/h (5 km/h) 0 mm0 mm
07:42 11.8 °C 0 km/h (5 km/h) 0 mm0 mm
07:36 11.8 °C 0 km/h (5 km/h) 0 mm0 mm
07:30 11.8 °C 0 km/h (4 km/h) 0 mm0 mm
07:24 11.8 °C 0 km/h (5 km/h) 0 mm0 mm
07:18 11.8 °C 0 km/h (5 km/h) 0 mm0 mm
07:12 11.9 °C 0 km/h (5 km/h) 0 mm0 mm
07:06 11.8 °C 0 km/h (7 km/h) 0 mm0 mm
07:00 11.8 °C 0 km/h (5 km/h) 0 mm0 mm
06:54 11.9 °C 0 km/h (5 km/h) 0 mm0 mm
06:48 12 °C 0 km/h (5 km/h) 0 mm0 mm
06:42 12.1 °C 0 km/h (5 km/h) 0 mm0 mm
06:36 12.1 °C 2 km/h (7 km/h) 0 mm0 mm
06:30 12.2 °C 0 km/h (4 km/h) 0 mm0 mm
06:24 12.2 °C 0 km/h (5 km/h) 0 mm0 mm
06:18 12.2 °C 0 km/h (6 km/h) 0 mm0 mm
06:12 12.3 °C 2 km/h (7 km/h) 0 mm0 mm
06:06 12.3 °C 2 km/h (8 km/h) 0 mm0 mm
06:00 12.3 °C 0 km/h (8 km/h) 0 mm0 mm
05:54 12.5 °C 0 km/h (4 km/h) 0 mm0 mm
05:48 12.4 °C 0 km/h (4 km/h) 0 mm0 mm
05:42 12.4 °C 0 km/h (4 km/h) 0 mm0 mm
05:36 12.5 °C 0 km/h (7 km/h) 0 mm0 mm
05:30 12.6 °C 0 km/h (7 km/h) 0 mm0 mm
05:24 12.6 °C 0 km/h (5 km/h) 0 mm0 mm
05:18 12.6 °C 0 km/h (6 km/h) 0 mm0 mm
05:12 12.6 °C 0 km/h (6 km/h) 0 mm0 mm
05:06 12.6 °C 0 km/h (5 km/h) 0 mm0 mm
05:00 12.8 °C 0 km/h (5 km/h) 0 mm0 mm
04:54 12.8 °C 0 km/h (5 km/h) 0 mm0 mm
04:48 12.9 °C 0 km/h (6 km/h) 0 mm0 mm
04:42 12.9 °C 2 km/h (7 km/h) 0 mm0 mm
04:36 12.8 °C 0 km/h (5 km/h) 0 mm0 mm
04:30 12.8 °C 0 km/h (6 km/h) 0 mm0 mm
04:24 12.8 °C 0 km/h (6 km/h) 0 mm0 mm
04:18 12.8 °C 0 km/h (5 km/h) 0 mm0 mm
04:12 12.9 °C 0 km/h (5 km/h) 0 mm0 mm
04:06 13 °C 0 km/h (6 km/h) 0 mm0 mm
04:00 13.1 °C 0 km/h (6 km/h) 0 mm0 mm
03:54 13.1 °C 0 km/h (6 km/h) 0 mm0 mm
03:48 13.2 °C 0 km/h (8 km/h) 0 mm0 mm
03:42 13.2 °C 0 km/h (5 km/h) 0 mm0 mm
03:36 13.2 °C 0 km/h (6 km/h) 0 mm0 mm
03:30 13.2 °C 0 km/h (6 km/h) 0 mm0 mm
03:24 13.2 °C 2 km/h (5 km/h) 0 mm0 mm
03:18 13.3 °C 0 km/h (5 km/h) 0 mm0 mm
03:12 13.3 °C 0 km/h (4 km/h) 0 mm0 mm
03:06 13.3 °C 0 km/h (4 km/h) 0 mm0 mm
03:00 13.4 °C 2 km/h (4 km/h) 0 mm0 mm
02:54 13.4 °C 2 km/h (4 km/h) 0 mm0 mm
02:48 13.5 °C 2 km/h (6 km/h) 0 mm0 mm
02:42 13.6 °C 2 km/h (6 km/h) 0 mm0 mm
02:36 13.6 °C 2 km/h (6 km/h) 0 mm0 mm
02:30 13.7 °C 2 km/h (6 km/h) 0 mm0 mm
02:24 13.7 °C 0 km/h (4 km/h) 0 mm0 mm
02:18 13.8 °C 2 km/h (5 km/h) 0 mm0 mm
02:12 13.8 °C 0 km/h (5 km/h) 0 mm0 mm
02:06 13.9 °C 0 km/h (4 km/h) 0 mm0 mm
02:00 13.9 °C 0 km/h (3 km/h) 0 mm0 mm
01:54 13.9 °C 0 km/h (4 km/h) 0 mm0 mm
01:48 14 °C 0 km/h (4 km/h) 0 mm0 mm
01:42 14.1 °C 0 km/h (4 km/h) 0 mm0 mm
01:36 14.2 °C 0 km/h (4 km/h) 0 mm0 mm
01:30 14.3 °C 0 km/h (3 km/h) 0 mm0 mm
01:24 14.3 °C 2 km/h (5 km/h) 0 mm0 mm
01:18 14.5 °C 0 km/h (5 km/h) 0 mm0 mm
01:12 14.5 °C 0 km/h (5 km/h) 0 mm0 mm
01:06 14.7 °C 3 km/h (9 km/h) 0 mm0 mm
01:00 14.7 °C 3 km/h (9 km/h) 0 mm0 mm
00:54 14.7 °C 2 km/h (5 km/h) 0 mm0 mm
00:48 14.7 °C 0 km/h (5 km/h) 0 mm0 mm
00:42 14.8 °C 0 km/h (5 km/h) 0 mm0 mm
00:36 14.8 °C 0 km/h (5 km/h) 0 mm0 mm
00:30 14.8 °C 0 km/h (4 km/h) 0 mm0 mm
00:24 14.9 °C 0 km/h (4 km/h) 0 mm0 mm
00:18 15 °C 0 km/h (4 km/h) 0 mm0 mm
00:12 15.1 °C 0 km/h (3 km/h) 0 mm0 mm
00:06 15.1 °C 0 km/h (4 km/h) 0 mm0 mm
00:00 15.2 °C 2 km/h (5 km/h) 0 mm0 mm

Données via Météo-France

Relevés météo à St Rambert Cg01

Cette page rassemble les observations de la station de St Rambert Cg01 : température, humidité, vent, précipitations et pression atmosphérique. Les graphiques facilitent le suivi de la journée, tandis que le tableau donne accès aux mesures horaires et infra-horaires disponibles.

Pour replacer ces mesures dans leur contexte, consultez la climatologie de St Rambert Cg01. Retrouvez aussi la carte des observations météo en temps réel.